9VTBQ WSSL-WSSL
Flight info
| Callsign | 9VTBQ |
|---|---|
| Flight time | 0h 42m |
| Altitude | 10000 |
| Route | OMKOM HOSBA G580 TOMAN G580 HOSBA OMKOM |
| Aircraft | C750/M-SDE2E3GHIJ1J3J4J5LM1ORWXYZ/LB1D1 |
Departure
| Time | 2026-05-05 11:25 |
|---|---|
| Airport | Seletar Airport (WSSL) |
Arrival
| Time | 2026-05-05 12:07 |
|---|---|
| Airport | Seletar Airport (WSSL) |
| Time | Latitude | Longitude | Altitude | Speed | Heading |
|---|---|---|---|---|---|
| 2026-05-05 11:24 | 1.46119 | 104.11613 | 10009 ft | 400 kts | 114° |
| 2026-05-05 11:25 | 1.44940 | 104.14186 | 9993 ft | 403 kts | 115° |
| 2026-05-05 11:25 | 1.43809 | 104.16656 | 9996 ft | 381 kts | 114° |
| 2026-05-05 11:25 | 1.42784 | 104.18946 | 9989 ft | 342 kts | 114° |
| 2026-05-05 11:25 | 1.41864 | 104.20978 | 9970 ft | 310 kts | 114° |
| 2026-05-05 11:26 | 1.40997 | 104.22867 | 9968 ft | 291 kts | 114° |
| 2026-05-05 11:26 | 1.40157 | 104.24718 | 9972 ft | 296 kts | 114° |
| 2026-05-05 11:26 | 1.39308 | 104.26593 | 9971 ft | 297 kts | 114° |
| 2026-05-05 11:26 | 1.38452 | 104.28477 | 9973 ft | 298 kts | 114° |
| 2026-05-05 11:27 | 1.37594 | 104.30365 | 9976 ft | 298 kts | 114° |
| 2026-05-05 11:27 | 1.36737 | 104.32255 | 9977 ft | 299 kts | 114° |
| 2026-05-05 11:27 | 1.35877 | 104.34145 | 9979 ft | 299 kts | 114° |
| 2026-05-05 11:27 | 1.35018 | 104.36035 | 9979 ft | 299 kts | 114° |
| 2026-05-05 11:28 | 1.34160 | 104.37926 | 9976 ft | 299 kts | 114° |
| 2026-05-05 11:28 | 1.33329 | 104.39798 | 9970 ft | 298 kts | 112° |
| 2026-05-05 11:28 | 1.33008 | 104.41827 | 9952 ft | 296 kts | 89° |
| 2026-05-05 11:28 | 1.33076 | 104.43899 | 9990 ft | 300 kts | 88° |
| 2026-05-05 11:29 | 1.33137 | 104.45981 | 9986 ft | 300 kts | 89° |
| 2026-05-05 11:29 | 1.33175 | 104.48059 | 9986 ft | 299 kts | 89° |
| 2026-05-05 11:29 | 1.33218 | 104.50136 | 9985 ft | 299 kts | 89° |
| 2026-05-05 11:29 | 1.33270 | 104.52213 | 9987 ft | 299 kts | 88° |
| 2026-05-05 11:30 | 1.33323 | 104.54289 | 9984 ft | 299 kts | 88° |
| 2026-05-05 11:30 | 1.33374 | 104.56367 | 9983 ft | 299 kts | 89° |
| 2026-05-05 11:30 | 1.33422 | 104.58415 | 9982 ft | 299 kts | 89° |
| 2026-05-05 11:30 | 1.33473 | 104.60490 | 9984 ft | 299 kts | 89° |
| 2026-05-05 11:31 | 1.33524 | 104.62567 | 9984 ft | 299 kts | 89° |
| 2026-05-05 11:31 | 1.33573 | 104.64645 | 9985 ft | 299 kts | 89° |
| 2026-05-05 11:31 | 1.33624 | 104.66774 | 10222 ft | 318 kts | 89° |
| 2026-05-05 11:31 | 1.33679 | 104.69078 | 10431 ft | 345 kts | 89° |
| 2026-05-05 11:32 | 1.33740 | 104.71550 | 10775 ft | 364 kts | 88° |
| 2026-05-05 11:32 | 1.33803 | 104.74139 | 11012 ft | 384 kts | 89° |
| 2026-05-05 11:32 | 1.33869 | 104.76886 | 11011 ft | 405 kts | 88° |
| 2026-05-05 11:32 | 1.33937 | 104.79713 | 11009 ft | 409 kts | 88° |
| 2026-05-05 11:33 | 1.34006 | 104.82528 | 11005 ft | 412 kts | 88° |
| 2026-05-05 11:33 | 1.34077 | 104.85395 | 11003 ft | 413 kts | 88° |
| 2026-05-05 11:33 | 1.34145 | 104.88267 | 11000 ft | 414 kts | 89° |
| 2026-05-05 11:33 | 1.34214 | 104.91146 | 10998 ft | 414 kts | 88° |
| 2026-05-05 11:34 | 1.34282 | 104.94023 | 11003 ft | 415 kts | 89° |
| 2026-05-05 11:34 | 1.34351 | 104.96905 | 10994 ft | 415 kts | 88° |
| 2026-05-05 11:34 | 1.34421 | 104.99786 | 10993 ft | 415 kts | 88° |
| 2026-05-05 11:34 | 1.34491 | 105.02666 | 10990 ft | 415 kts | 88° |
| 2026-05-05 11:35 | 1.34560 | 105.05547 | 10996 ft | 415 kts | 89° |
| 2026-05-05 11:35 | 1.34628 | 105.08429 | 10991 ft | 415 kts | 88° |
| 2026-05-05 11:35 | 1.34697 | 105.11271 | 10996 ft | 415 kts | 88° |
| 2026-05-05 11:35 | 1.34766 | 105.14152 | 10996 ft | 415 kts | 89° |
| 2026-05-05 11:36 | 1.34835 | 105.17036 | 10997 ft | 415 kts | 88° |
| 2026-05-05 11:36 | 1.34904 | 105.19916 | 10996 ft | 415 kts | 88° |
| 2026-05-05 11:36 | 1.34973 | 105.22797 | 10997 ft | 415 kts | 88° |
| 2026-05-05 11:36 | 1.35041 | 105.25679 | 11000 ft | 415 kts | 88° |
| 2026-05-05 11:37 | 1.35110 | 105.28561 | 10997 ft | 415 kts | 88° |
| 2026-05-05 11:37 | 1.35180 | 105.31443 | 10991 ft | 415 kts | 88° |
| 2026-05-05 11:37 | 1.35248 | 105.34325 | 10997 ft | 415 kts | 89° |
| 2026-05-05 11:37 | 1.35316 | 105.37168 | 10996 ft | 415 kts | 88° |
| 2026-05-05 11:38 | 1.35385 | 105.40048 | 10996 ft | 415 kts | 88° |
| 2026-05-05 11:38 | 1.35454 | 105.42928 | 10997 ft | 415 kts | 88° |
| 2026-05-05 11:38 | 1.35522 | 105.45814 | 10997 ft | 415 kts | 88° |
| 2026-05-05 11:38 | 1.35591 | 105.48694 | 10997 ft | 415 kts | 88° |
| 2026-05-05 11:39 | 1.35659 | 105.51577 | 11004 ft | 415 kts | 88° |
| 2026-05-05 11:39 | 1.35729 | 105.54459 | 10997 ft | 415 kts | 88° |
| 2026-05-05 11:39 | 1.35798 | 105.57341 | 11000 ft | 415 kts | 88° |
| 2026-05-05 11:39 | 1.35866 | 105.60221 | 10997 ft | 415 kts | 88° |
| 2026-05-05 11:40 | 1.35934 | 105.63065 | 10998 ft | 415 kts | 88° |
| 2026-05-05 11:40 | 1.36002 | 105.65944 | 10997 ft | 414 kts | 88° |
| 2026-05-05 11:40 | 1.36071 | 105.68820 | 10997 ft | 414 kts | 88° |
| 2026-05-05 11:40 | 1.36138 | 105.71701 | 10998 ft | 414 kts | 88° |
| 2026-05-05 11:41 | 1.36207 | 105.74578 | 10988 ft | 414 kts | 88° |
| 2026-05-05 11:41 | 1.36275 | 105.77455 | 10992 ft | 414 kts | 88° |
| 2026-05-05 11:41 | 1.36263 | 105.80330 | 10974 ft | 414 kts | 95° |
| 2026-05-05 11:41 | 1.35620 | 105.83133 | 10985 ft | 414 kts | 109° |
| 2026-05-05 11:42 | 1.34841 | 105.84870 | 10983 ft | 415 kts | 118° |
| 2026-05-05 11:42 | 1.32509 | 105.87877 | 10983 ft | 415 kts | 136° |
| 2026-05-05 11:42 | 1.30184 | 105.89583 | 10988 ft | 415 kts | 150° |
| 2026-05-05 11:42 | 1.27521 | 105.90687 | 10989 ft | 416 kts | 163° |
| 2026-05-05 11:43 | 1.24676 | 105.91127 | 10986 ft | 413 kts | 177° |
| 2026-05-05 11:43 | 1.21814 | 105.90880 | 10988 ft | 414 kts | 191° |
| 2026-05-05 11:43 | 1.19986 | 105.90344 | 10988 ft | 414 kts | 200° |
| 2026-05-05 11:43 | 1.16663 | 105.88422 | 10990 ft | 415 kts | 218° |
| 2026-05-05 11:44 | 1.15285 | 105.87103 | 10987 ft | 415 kts | 227° |
| 2026-05-05 11:44 | 1.13642 | 105.84742 | 10987 ft | 415 kts | 241° |
| 2026-05-05 11:44 | 1.12412 | 105.81148 | 10990 ft | 415 kts | 259° |
| 2026-05-05 11:44 | 1.12263 | 105.78278 | 10989 ft | 415 kts | 273° |
| 2026-05-05 11:45 | 1.12797 | 105.75455 | 10986 ft | 415 kts | 287° |
| 2026-05-05 11:45 | 1.13515 | 105.73688 | 10983 ft | 415 kts | 296° |
| 2026-05-05 11:45 | 1.15101 | 105.71292 | 10986 ft | 414 kts | 310° |
| 2026-05-05 11:45 | 1.17746 | 105.68492 | 11010 ft | 414 kts | 314° |
| 2026-05-05 11:46 | 1.19739 | 105.66411 | 11007 ft | 414 kts | 314° |
| 2026-05-05 11:46 | 1.21724 | 105.64323 | 11009 ft | 415 kts | 313° |
| 2026-05-05 11:46 | 1.23681 | 105.62264 | 11007 ft | 414 kts | 314° |
| 2026-05-05 11:46 | 1.25672 | 105.60181 | 11007 ft | 414 kts | 314° |
| 2026-05-05 11:47 | 1.27662 | 105.58098 | 11007 ft | 414 kts | 314° |
| 2026-05-05 11:47 | 1.29004 | 105.56688 | 11006 ft | 414 kts | 314° |
| 2026-05-05 11:47 | 1.30965 | 105.54629 | 11006 ft | 414 kts | 314° |
| 2026-05-05 11:47 | 1.32921 | 105.52519 | 10988 ft | 414 kts | 310° |
| 2026-05-05 11:48 | 1.35296 | 105.47288 | 10986 ft | 418 kts | 281° |
| 2026-05-05 11:48 | 1.35497 | 105.44397 | 10994 ft | 417 kts | 269° |
| 2026-05-05 11:48 | 1.35418 | 105.41516 | 11008 ft | 415 kts | 268° |
| 2026-05-05 11:49 | 1.35343 | 105.38635 | 11007 ft | 415 kts | 269° |
| 2026-05-05 11:49 | 1.35282 | 105.35754 | 11006 ft | 415 kts | 269° |
| 2026-05-05 11:49 | 1.35218 | 105.32914 | 11005 ft | 415 kts | 268° |
| 2026-05-05 11:49 | 1.35143 | 105.30032 | 11006 ft | 415 kts | 268° |
| 2026-05-05 11:50 | 1.35071 | 105.27151 | 11006 ft | 415 kts | 269° |
| 2026-05-05 11:50 | 1.35005 | 105.24269 | 11006 ft | 415 kts | 269° |
| 2026-05-05 11:50 | 1.34937 | 105.21390 | 11006 ft | 415 kts | 268° |
| 2026-05-05 11:50 | 1.34866 | 105.18505 | 11006 ft | 415 kts | 268° |
| 2026-05-05 11:51 | 1.34796 | 105.15626 | 11006 ft | 415 kts | 269° |
| 2026-05-05 11:51 | 1.34730 | 105.12745 | 11006 ft | 415 kts | 269° |
| 2026-05-05 11:51 | 1.34661 | 105.09864 | 11006 ft | 415 kts | 268° |
| 2026-05-05 11:51 | 1.34590 | 105.07022 | 11006 ft | 415 kts | 268° |
| 2026-05-05 11:52 | 1.34521 | 105.04141 | 11007 ft | 415 kts | 269° |
| 2026-05-05 11:52 | 1.34454 | 105.01260 | 11006 ft | 415 kts | 269° |
| 2026-05-05 11:52 | 1.34386 | 104.98379 | 11006 ft | 415 kts | 268° |
| 2026-05-05 11:52 | 1.34314 | 104.95496 | 11006 ft | 415 kts | 268° |
| 2026-05-05 11:53 | 1.34356 | 104.92620 | 10960 ft | 416 kts | 277° |
| 2026-05-05 11:53 | 1.35320 | 104.89903 | 10954 ft | 417 kts | 300° |
| 2026-05-05 11:53 | 1.37263 | 104.87770 | 10962 ft | 417 kts | 322° |
| 2026-05-05 11:53 | 1.39516 | 104.86033 | 10966 ft | 417 kts | 315° |
| 2026-05-05 11:54 | 1.41066 | 104.83600 | 10966 ft | 418 kts | 292° |
| 2026-05-05 11:54 | 1.41620 | 104.80766 | 11049 ft | 414 kts | 274° |
| 2026-05-05 11:54 | 1.41563 | 104.77905 | 11119 ft | 416 kts | 262° |
| 2026-05-05 11:54 | 1.40871 | 104.75093 | 11009 ft | 414 kts | 251° |
| 2026-05-05 11:55 | 1.39846 | 104.72410 | 11010 ft | 415 kts | 248° |
| 2026-05-05 11:55 | 1.38811 | 104.69723 | 11006 ft | 414 kts | 250° |
| 2026-05-05 11:55 | 1.37977 | 104.66967 | 11008 ft | 414 kts | 255° |
| 2026-05-05 11:55 | 1.37245 | 104.64180 | 11005 ft | 414 kts | 255° |
| 2026-05-05 11:56 | 1.36417 | 104.61460 | 11002 ft | 415 kts | 252° |
| 2026-05-05 11:56 | 1.35504 | 104.58732 | 11001 ft | 415 kts | 251° |
| 2026-05-05 11:56 | 1.34643 | 104.55978 | 11000 ft | 415 kts | 253° |
| 2026-05-05 11:56 | 1.33835 | 104.53215 | 10999 ft | 414 kts | 253° |
| 2026-05-05 11:57 | 1.33241 | 104.50400 | 10965 ft | 417 kts | 265° |
| 2026-05-05 11:57 | 1.33165 | 104.47502 | 10998 ft | 415 kts | 269° |
| 2026-05-05 11:57 | 1.33105 | 104.44626 | 11005 ft | 415 kts | 268° |
| 2026-05-05 11:57 | 1.33096 | 104.41749 | 10983 ft | 415 kts | 274° |
| 2026-05-05 11:58 | 1.33727 | 104.38965 | 10983 ft | 418 kts | 289° |
| 2026-05-05 11:58 | 1.34852 | 104.36371 | 10994 ft | 397 kts | 295° |
| 2026-05-05 11:58 | 1.36030 | 104.33824 | 11009 ft | 407 kts | 295° |
| 2026-05-05 11:58 | 1.37204 | 104.31237 | 11007 ft | 411 kts | 294° |
| 2026-05-05 11:59 | 1.38355 | 104.28676 | 11003 ft | 391 kts | 294° |
| 2026-05-05 11:59 | 1.39487 | 104.26182 | 11004 ft | 385 kts | 294° |
| 2026-05-05 11:59 | 1.40552 | 104.23853 | 10951 ft | 356 kts | 294° |
| 2026-05-05 11:59 | 1.41489 | 104.21795 | 9678 ft | 297 kts | 294° |
| 2026-05-05 12:00 | 1.42307 | 104.19988 | 7483 ft | 277 kts | 294° |
| 2026-05-05 12:00 | 1.43080 | 104.18280 | 5240 ft | 269 kts | 294° |
| 2026-05-05 12:00 | 1.43843 | 104.16597 | 3173 ft | 271 kts | 294° |
| 2026-05-05 12:00 | 1.44647 | 104.14822 | 2243 ft | 281 kts | 294° |
| 2026-05-05 12:01 | 1.45427 | 104.13108 | 1999 ft | 255 kts | 294° |
| 2026-05-05 12:01 | 1.46142 | 104.11526 | 2004 ft | 235 kts | 294° |
| 2026-05-05 12:01 | 1.46782 | 104.10115 | 2000 ft | 216 kts | 295° |
| 2026-05-05 12:01 | 1.47420 | 104.08753 | 2002 ft | 216 kts | 295° |
| 2026-05-05 12:02 | 1.48031 | 104.07386 | 1993 ft | 219 kts | 294° |
| 2026-05-05 12:02 | 1.48653 | 104.05974 | 1994 ft | 220 kts | 294° |
| 2026-05-05 12:02 | 1.49267 | 104.04648 | 1987 ft | 221 kts | 295° |
| 2026-05-05 12:02 | 1.49910 | 104.03260 | 1998 ft | 220 kts | 294° |
| 2026-05-05 12:03 | 1.50537 | 104.01861 | 2001 ft | 221 kts | 294° |
| 2026-05-05 12:03 | 1.51167 | 104.00464 | 2003 ft | 220 kts | 294° |
| 2026-05-05 12:03 | 1.51801 | 103.99068 | 2006 ft | 220 kts | 295° |
| 2026-05-05 12:03 | 1.52220 | 103.97610 | 1926 ft | 222 kts | 269° |
| 2026-05-05 12:04 | 1.51718 | 103.96178 | 1971 ft | 221 kts | 241° |
| 2026-05-05 12:04 | 1.50939 | 103.94846 | 2014 ft | 223 kts | 240° |
| 2026-05-05 12:04 | 1.50202 | 103.93513 | 2012 ft | 221 kts | 241° |
| 2026-05-05 12:04 | 1.49455 | 103.92169 | 2009 ft | 221 kts | 239° |
| 2026-05-05 12:05 | 1.48369 | 103.91109 | 1988 ft | 219 kts | 213° |
| 2026-05-05 12:05 | 1.47071 | 103.90297 | 2015 ft | 222 kts | 212° |
| 2026-05-05 12:05 | 1.45781 | 103.89464 | 2007 ft | 214 kts | 213° |
| 2026-05-05 12:05 | 1.44627 | 103.88695 | 1678 ft | 180 kts | 213° |
| 2026-05-05 12:06 | 1.43600 | 103.88001 | 402 ft | 175 kts | 214° |
| 2026-05-05 12:06 | 1.42713 | 103.87418 | 141 ft | 135 kts | 213° |
| 2026-05-05 12:06 | 1.41974 | 103.86948 | 49 ft | 118 kts | 213° |
| 2026-05-05 12:06 | 1.41467 | 103.86616 | 53 ft | 51 kts | 213° |
| 2026-05-05 12:07 | 1.41260 | 103.86480 | 52 ft | 31 kts | 213° |
| 2026-05-05 12:07 | 1.41086 | 103.86367 | 50 ft | 27 kts | 213° |
| 2026-05-05 12:07 | 1.40867 | 103.86262 | 50 ft | 28 kts | 182° |
| 2026-05-05 12:07 | 1.40791 | 103.86349 | 48 ft | 13 kts | 94° |
| 2026-05-05 12:08 | 1.40865 | 103.86413 | 51 ft | 43 kts | 32° |
| 2026-05-05 12:08 | 1.41353 | 103.86730 | 50 ft | 74 kts | 33° |
| 2026-05-05 12:08 | 1.41625 | 103.86911 | 49 ft | 16 kts | 45° |
| 2026-05-05 12:08 | 1.41619 | 103.86940 | 49 ft | 3 kts | 124° |
| 2026-05-05 12:09 | 1.41587 | 103.86992 | 51 ft | 9 kts | 110° |
| 2026-05-05 12:09 | 1.41604 | 103.87028 | 51 ft | 4 kts | 30° |
| 2026-05-05 12:09 | 1.41622 | 103.87039 | 51 ft | 6 kts | 31° |
| 2026-05-05 12:09 | 1.41706 | 103.87095 | 51 ft | 13 kts | 34° |
| 2026-05-05 12:10 | 1.41742 | 103.87119 | 51 ft | 2 kts | 33° |
| 2026-05-05 12:10 | 1.41807 | 103.87159 | 51 ft | 12 kts | 32° |
| 2026-05-05 12:10 | 1.41841 | 103.87153 | 51 ft | 3 kts | 310° |
| 2026-05-05 12:10 | 1.41859 | 103.87123 | 51 ft | 0 kts | 303° |
| 2026-05-05 12:11 | 1.41860 | 103.87122 | 51 ft | 0 kts | 303° |